Time;durP1;ratioP1;P1;durP2;ratioP2;P2;SDS_P1;SDS_P2;PMS_P1;PMS_P2;Temp;Humidity;BMP_temperature;BMP_pressure;BME280_temperature;BME280_humidity;BME280_pressure;Samples;Min_cycle;Max_cycle;Signal;HPM_P1;HPM_P2
2022/02/22 00:01:46;;;;;;;7.20;3.00;;;0.90;99.90;;;;;;5004948;28;20141;-65
2022/02/22 00:04:13;;;;;;;1.77;1.08;;;0.90;99.90;;;;;;5004058;28;20069;-65
2022/02/22 00:06:40;;;;;;;5.57;1.63;;;0.90;99.90;;;;;;5004737;28;20140;-64
2022/02/22 00:09:06;;;;;;;4.38;1.52;;;0.90;99.90;;;;;;5002075;28;20077;-64
2022/02/22 00:11:33;;;;;;;6.13;1.15;;;0.90;99.90;;;;;;4984891;28;20132;-65
2022/02/22 00:14:00;;;;;;;7.63;1.75;;;0.90;99.90;;;;;;5002653;28;20080;-64
2022/02/22 00:16:27;;;;;;;2.58;1.38;;;0.90;99.90;;;;;;5004100;28;20048;-64
2022/02/22 00:18:54;;;;;;;7.07;2.08;;;1.00;99.90;;;;;;5034030;28;20069;-64
2022/02/22 00:21:21;;;;;;;9.10;1.60;;;1.00;99.90;;;;;;5000909;28;20153;-66
2022/02/22 00:23:48;;;;;;;14.02;2.70;;;1.00;99.90;;;;;;5005016;28;20107;-64
2022/02/22 00:26:15;;;;;;;4.80;1.55;;;1.00;99.90;;;;;;5002060;28;20057;-63
2022/02/22 00:28:42;;;;;;;3.80;1.00;;;1.00;99.90;;;;;;5003790;28;20073;-64
2022/02/22 00:31:09;;;;;;;2.58;1.02;;;1.00;99.90;;;;;;5000761;28;20057;-65
2022/02/22 00:33:36;;;;;;;5.28;1.73;;;1.00;99.90;;;;;;5003930;28;20061;-64
2022/02/22 00:36:03;;;;;;;4.07;1.88;;;1.00;99.90;;;;;;5002112;28;20189;-64
2022/02/22 00:38:29;;;;;;;5.07;1.70;;;1.00;99.90;;;;;;5004120;28;20069;-65
2022/02/22 00:40:57;;;;;;;3.70;1.42;;;1.00;99.90;;;;;;4995618;28;20133;-64
2022/02/22 00:43:23;;;;;;;8.52;2.13;;;1.00;99.90;;;;;;4999236;28;20518;-65
2022/02/22 00:45:50;;;;;;;3.80;1.88;;;1.00;99.90;;;;;;5001605;28;20132;-65
2022/02/22 00:48:19;;;;;;;5.78;2.55;;;1.00;99.90;;;;;;5004331;28;20045;-64
2022/02/22 00:50:46;;;;;;;5.05;1.65;;;1.00;99.90;;;;;;5001144;28;20057;-64
2022/02/22 00:53:13;;;;;;;3.88;1.50;;;1.00;99.90;;;;;;5003038;28;20370;-67
2022/02/22 00:55:41;;;;;;;8.68;2.42;;;1.10;99.90;;;;;;5002826;28;20057;-64
2022/02/22 00:58:07;;;;;;;3.90;1.10;;;1.00;99.90;;;;;;5000986;28;20195;-64
2022/02/22 01:00:34;;;;;;;12.57;2.85;;;0.90;99.90;;;;;;4993392;28;20054;-65
2022/02/22 01:03:01;;;;;;;2.25;1.70;;;0.80;99.90;;;;;;5005457;28;20141;-65
2022/02/22 01:05:28;;;;;;;12.15;1.92;;;0.70;99.90;;;;;;4999109;28;20226;-64
2022/02/22 01:07:56;;;;;;;10.77;1.92;;;0.60;99.90;;;;;;5003717;28;20041;-63
2022/02/22 01:10:24;;;;;;;8.48;3.50;;;0.60;99.90;;;;;;5005000;28;20038;-65
2022/02/22 01:12:50;;;;;;;8.75;1.15;;;0.50;99.90;;;;;;5000045;28;20153;-65
2022/02/22 01:15:17;;;;;;;7.95;1.65;;;0.50;99.90;;;;;;5000207;28;20145;-64
2022/02/22 01:17:44;;;;;;;4.15;2.85;;;0.50;99.90;;;;;;5001986;28;20069;-63
2022/02/22 01:20:12;;;;;;;3.45;1.40;;;0.40;99.90;;;;;;5002932;28;20100;-67
2022/02/22 01:22:40;;;;;;;8.10;2.33;;;0.40;99.90;;;;;;5002297;28;20105;-65
2022/02/22 01:25:09;;;;;;;8.82;1.33;;;0.50;99.90;;;;;;5003260;28;20081;-65
2022/02/22 01:27:37;;;;;;;6.63;2.15;;;0.60;99.90;;;;;;5000854;28;20127;-63
2022/02/22 01:30:06;;;;;;;2.05;1.17;;;0.60;99.90;;;;;;5001517;28;20606;-66
2022/02/22 01:32:33;;;;;;;3.80;2.53;;;0.60;99.90;;;;;;5002819;28;20073;-64
2022/02/22 01:35:04;;;;;;;5.03;2.05;;;0.60;99.90;;;;;;5002285;28;20042;-65
2022/02/22 01:37:31;;;;;;;7.32;1.85;;;0.60;99.90;;;;;;5001894;28;20124;-64
2022/02/22 01:39:58;;;;;;;8.43;1.73;;;0.60;99.90;;;;;;5001614;28;20782;-65
2022/02/22 01:42:25;;;;;;;3.00;1.20;;;0.60;99.90;;;;;;4969016;28;20057;-66
2022/02/22 01:45:09;;;;;;;3.02;1.00;;;0.60;99.90;;;;;;4398727;28;10001057;-65
2022/02/22 01:47:36;;;;;;;7.43;1.20;;;0.60;99.90;;;;;;2752269;28;10002097;-66
2022/02/22 01:50:05;;;;;;;6.88;1.92;;;0.60;99.90;;;;;;5003076;28;20160;-65
2022/02/22 01:52:32;;;;;;;9.23;1.42;;;0.60;99.90;;;;;;5001838;28;20617;-66
2022/02/22 01:54:59;;;;;;;5.22;1.10;;;0.60;99.90;;;;;;5002842;28;20128;-66
2022/02/22 01:57:26;;;;;;;5.10;1.83;;;0.60;99.90;;;;;;5000076;28;20085;-65
2022/02/22 01:59:53;;;;;;;7.50;1.63;;;0.60;99.90;;;;;;5003503;28;20062;-67
2022/02/22 02:02:20;;;;;;;3.35;1.30;;;0.60;99.90;;;;;;5000418;28;20054;-64
2022/02/22 02:04:47;;;;;;;7.50;1.50;;;0.60;99.90;;;;;;5002746;28;20093;-64
2022/02/22 02:07:18;;;;;;;10.40;2.13;;;0.60;99.90;;;;;;5000975;28;20871;-65
2022/02/22 02:09:45;;;;;;;6.95;2.42;;;0.60;99.90;;;;;;5003041;28;20092;-64
2022/02/22 02:12:14;;;;;;;7.72;1.48;;;0.60;99.90;;;;;;4992588;28;20126;-64
2022/02/22 02:14:41;;;;;;;5.35;1.48;;;0.60;99.90;;;;;;4984792;28;20085;-66
2022/02/22 02:17:07;;;;;;;2.25;1.38;;;0.60;99.90;;;;;;4981436;28;20042;-66
2022/02/22 02:19:34;;;;;;;5.43;1.33;;;0.40;99.90;;;;;;4983069;28;20216;-65
2022/02/22 02:22:01;;;;;;;11.05;1.90;;;0.30;99.90;;;;;;4981657;28;20380;-66
2022/02/22 02:24:28;;;;;;;6.18;2.65;;;0.30;99.90;;;;;;4983733;28;20056;-64
2022/02/22 02:26:56;;;;;;;5.28;2.20;;;0.20;99.90;;;;;;4980144;28;20508;-67
2022/02/22 02:29:25;;;;;;;9.98;3.00;;;0.00;99.90;;;;;;5000207;28;20146;-64
2022/02/22 02:31:54;;;;;;;7.20;2.88;;;0.00;99.90;;;;;;5002315;28;20046;-64
2022/02/22 02:34:24;;;;;;;7.30;1.92;;;-0.10;99.90;;;;;;5006704;28;20201;-63
2022/02/22 02:36:51;;;;;;;6.88;3.00;;;-0.20;99.90;;;;;;5005438;28;20203;-65
2022/02/22 02:39:21;;;;;;;9.25;4.18;;;-0.20;99.90;;;;;;4986266;28;20052;-64
2022/02/22 02:41:49;;;;;;;5.72;1.90;;;-0.30;99.90;;;;;;4985050;28;20050;-65
2022/02/22 02:44:18;;;;;;;9.30;3.05;;;-0.40;99.90;;;;;;4985156;28;20120;-66
2022/02/22 02:46:46;;;;;;;3.58;2.08;;;-0.40;99.90;;;;;;4997313;28;20509;-63
2022/02/22 02:49:15;;;;;;;4.60;2.20;;;-0.50;99.90;;;;;;5003871;28;20050;-66
2022/02/22 02:51:42;;;;;;;9.32;3.45;;;-0.50;99.90;;;;;;5006132;28;20428;-64
2022/02/22 02:54:10;;;;;;;4.75;2.38;;;-0.50;99.90;;;;;;5003436;28;20050;-69
2022/02/22 02:56:38;;;;;;;6.90;2.97;;;-0.50;99.90;;;;;;5005270;28;20057;-65
2022/02/22 02:59:07;;;;;;;7.38;2.97;;;-0.50;99.90;;;;;;4988942;28;20051;-66
2022/02/22 03:01:36;;;;;;;10.02;3.00;;;-0.60;99.90;;;;;;5001497;28;20139;-65
2022/02/22 03:04:04;;;;;;;9.57;2.78;;;-0.60;99.90;;;;;;5004879;28;20098;-65
2022/02/22 03:06:31;;;;;;;6.30;2.13;;;-0.50;99.90;;;;;;4993517;28;20047;-64
2022/02/22 03:08:58;;;;;;;13.68;3.20;;;-0.50;99.90;;;;;;5000242;28;20459;-68
2022/02/22 03:11:25;;;;;;;10.82;2.60;;;-0.50;99.90;;;;;;5001975;28;20149;-63
2022/02/22 03:13:53;;;;;;;10.60;3.13;;;-0.50;99.90;;;;;;5008441;28;20061;-64
2022/02/22 03:16:20;;;;;;;10.45;2.35;;;-0.50;99.90;;;;;;5004758;28;20046;-63
2022/02/22 03:18:47;;;;;;;8.88;3.65;;;-0.50;99.90;;;;;;5001613;28;20138;-64
2022/02/22 03:21:14;;;;;;;6.03;2.10;;;-0.50;99.90;;;;;;5001981;28;20070;-64
2022/02/22 03:23:41;;;;;;;7.40;3.17;;;-0.50;99.90;;;;;;5004027;28;20832;-63
2022/02/22 03:26:08;;;;;;;6.35;2.20;;;-0.50;99.90;;;;;;4997388;28;20070;-63
2022/02/22 03:28:37;;;;;;;3.25;1.67;;;-0.50;99.90;;;;;;4983440;28;20154;-65
2022/02/22 03:31:04;;;;;;;4.70;2.03;;;-0.60;99.90;;;;;;5001413;28;20777;-63
2022/02/22 03:33:32;;;;;;;6.82;3.17;;;-0.60;99.90;;;;;;4985991;28;20108;-64
2022/02/22 03:36:00;;;;;;;2.13;1.67;;;-0.60;99.90;;;;;;5004754;28;20136;-64
2022/02/22 03:38:27;;;;;;;5.13;1.90;;;-0.60;99.90;;;;;;4984976;28;20061;-65
2022/02/22 03:40:54;;;;;;;9.32;4.10;;;-0.70;99.90;;;;;;4975902;28;20397;-69
2022/02/22 03:43:21;;;;;;;9.25;2.60;;;-0.70;99.90;;;;;;4910672;28;20771;-63
2022/02/22 03:45:55;;;;;;;8.48;2.13;;;-0.70;99.90;;;;;;1194829;28;10023664;-63
2022/02/22 03:48:22;;;;;;;6.75;2.60;;;-0.70;99.90;;;;;;4998489;28;20321;-66
2022/02/22 03:50:49;;;;;;;4.70;2.45;;;-0.70;99.90;;;;;;4995603;28;20940;-67
2022/02/22 03:53:16;;;;;;;7.95;2.50;;;-0.80;99.90;;;;;;4993646;28;20802;-68
2022/02/22 03:55:44;;;;;;;4.30;1.75;;;-0.80;99.90;;;;;;4993483;28;20153;-69
2022/02/22 03:58:11;;;;;;;7.00;1.90;;;-0.80;99.90;;;;;;4995292;28;20157;-67
2022/02/22 04:00:38;;;;;;;7.60;2.45;;;-0.80;99.90;;;;;;4994708;28;20159;-65
2022/02/22 04:03:06;;;;;;;4.32;2.30;;;-0.80;99.90;;;;;;4996015;28;20042;-67
2022/02/22 04:05:34;;;;;;;6.93;2.08;;;-0.80;99.90;;;;;;4973783;28;20056;-66
2022/02/22 04:08:01;;;;;;;5.47;1.73;;;-0.80;99.90;;;;;;4976828;28;20792;-64
2022/02/22 04:10:28;;;;;;;7.88;2.25;;;-0.80;99.90;;;;;;4974481;28;20528;-67
2022/02/22 04:12:55;;;;;;;6.45;2.10;;;-0.80;99.90;;;;;;4976760;28;20161;-70
2022/02/22 04:15:22;;;;;;;4.38;2.17;;;-0.80;99.90;;;;;;4991025;28;20144;-64
2022/02/22 04:17:49;;;;;;;13.18;2.85;;;-0.80;99.90;;;;;;4994728;28;21782;-65
2022/02/22 04:20:17;;;;;;;6.90;2.58;;;-0.80;99.90;;;;;;4995040;28;20127;-63
2022/02/22 04:22:44;;;;;;;9.48;3.15;;;-0.90;99.90;;;;;;4995615;28;20069;-67
2022/02/22 04:25:11;;;;;;;7.43;3.42;;;-0.90;99.90;;;;;;4992159;28;20132;-67
2022/02/22 04:27:39;;;;;;;4.88;2.75;;;-0.90;99.90;;;;;;4994888;28;20132;-66
2022/02/22 04:30:07;;;;;;;7.68;2.97;;;-1.00;99.90;;;;;;4995267;28;20077;-63
2022/02/22 04:32:34;;;;;;;5.97;4.60;;;-0.90;99.90;;;;;;4993258;28;20085;-67
2022/02/22 04:35:01;;;;;;;8.68;4.40;;;-0.90;99.90;;;;;;4994807;28;20225;-64
2022/02/22 04:37:28;;;;;;;7.63;3.22;;;-0.90;99.90;;;;;;4992707;28;20060;-67
2022/02/22 04:39:55;;;;;;;6.47;3.42;;;-0.90;99.90;;;;;;4994986;28;20136;-65
2022/02/22 04:42:22;;;;;;;7.28;2.08;;;-0.90;99.90;;;;;;4994404;28;20215;-68
2022/02/22 04:44:49;;;;;;;2.88;2.42;;;-1.00;99.90;;;;;;4995688;28;20042;-65
2022/02/22 04:47:16;;;;;;;6.85;3.28;;;-0.90;99.90;;;;;;4991587;28;20093;-65
2022/02/22 04:49:43;;;;;;;3.92;2.53;;;-1.00;99.90;;;;;;4995151;28;20456;-67
2022/02/22 04:52:10;;;;;;;11.50;3.00;;;-1.00;99.90;;;;;;4994058;28;20453;-65
2022/02/22 04:54:38;;;;;;;4.32;3.08;;;-1.00;99.90;;;;;;4994065;28;20128;-65
2022/02/22 04:57:06;;;;;;;9.85;2.83;;;-1.00;99.90;;;;;;4994391;28;20053;-64
2022/02/22 04:59:34;;;;;;;6.57;2.80;;;-1.00;99.90;;;;;;4993348;28;20077;-67
2022/02/22 05:02:01;;;;;;;5.28;2.85;;;-1.00;99.90;;;;;;4992151;28;20476;-65
2022/02/22 05:04:28;;;;;;;5.70;2.45;;;-1.00;99.90;;;;;;4994862;28;20088;-67
2022/02/22 05:06:55;;;;;;;9.13;2.85;;;-1.00;99.90;;;;;;4993296;28;20149;-67
2022/02/22 05:09:22;;;;;;;8.25;3.40;;;-0.90;99.90;;;;;;4990258;28;20060;-66
2022/02/22 05:11:49;;;;;;;6.20;3.38;;;-0.90;99.90;;;;;;4993773;28;20081;-67
2022/02/22 05:14:16;;;;;;;7.35;3.35;;;-1.00;99.90;;;;;;4992758;28;20160;-63
2022/02/22 05:16:42;;;;;;;8.27;3.83;;;-0.90;99.90;;;;;;4994271;28;20133;-65
2022/02/22 05:19:09;;;;;;;6.38;3.05;;;-0.90;99.90;;;;;;4991404;28;20140;-67
2022/02/22 05:21:36;;;;;;;5.88;2.70;;;-0.90;99.90;;;;;;4994681;28;20056;-66
2022/02/22 05:24:05;;;;;;;9.35;3.03;;;-0.90;99.90;;;;;;4990978;28;20636;-65
2022/02/22 05:26:33;;;;;;;4.90;2.97;;;-1.00;99.90;;;;;;4994873;28;20041;-65
2022/02/22 05:29:00;;;;;;;4.47;2.38;;;-1.00;99.90;;;;;;4990728;28;20058;-64
2022/02/22 05:31:26;;;;;;;12.38;3.80;;;-1.00;99.90;;;;;;4992221;28;20543;-67
2022/02/22 05:33:54;;;;;;;7.75;3.97;;;-1.00;99.90;;;;;;4993274;28;20058;-69
2022/02/22 05:36:21;;;;;;;5.50;3.25;;;-1.00;99.90;;;;;;4994435;28;20143;-67
2022/02/22 05:38:49;;;;;;;4.80;2.50;;;-1.00;99.90;;;;;;4993869;28;20456;-66
2022/02/22 05:41:17;;;;;;;4.65;2.65;;;-1.10;99.90;;;;;;4992436;28;20062;-64
2022/02/22 05:43:54;;;;;;;6.18;3.22;;;-1.00;99.90;;;;;;4786367;28;10000892;-65
2022/02/22 05:46:20;;;;;;;7.38;2.67;;;-1.00;99.90;;;;;;685978;28;10002027;-67
2022/02/22 05:48:47;;;;;;;6.90;3.28;;;-1.00;99.90;;;;;;4993844;28;20290;-65
2022/02/22 05:51:16;;;;;;;9.88;3.13;;;-1.00;99.90;;;;;;4989538;28;20181;-71
2022/02/22 05:53:43;;;;;;;6.90;2.85;;;-1.00;99.90;;;;;;4993684;28;20053;-66
2022/02/22 05:56:13;;;;;;;6.68;2.70;;;-1.10;99.90;;;;;;4992040;28;20073;-68
2022/02/22 05:58:39;;;;;;;5.32;2.67;;;-1.10;99.90;;;;;;4993949;28;20710;-66
2022/02/22 06:01:06;;;;;;;8.55;4.03;;;-1.10;99.90;;;;;;4992889;28;20240;-68
2022/02/22 06:03:33;;;;;;;6.43;2.50;;;-1.20;99.90;;;;;;4992910;28;20100;-65
2022/02/22 06:06:00;;;;;;;5.05;2.80;;;-1.10;99.90;;;;;;4992944;28;20057;-66
2022/02/22 06:08:29;;;;;;;3.95;2.00;;;-1.20;99.90;;;;;;4996942;28;20149;-67
2022/02/22 06:10:56;;;;;;;5.53;2.83;;;-1.30;99.90;;;;;;4997254;28;20058;-64
2022/02/22 06:13:23;;;;;;;4.90;1.77;;;-1.30;99.90;;;;;;4995456;28;20543;-70
2022/02/22 06:15:50;;;;;;;6.45;2.67;;;-1.30;99.90;;;;;;4992098;28;20050;-69
2022/02/22 06:18:19;;;;;;;9.75;2.85;;;-1.30;99.90;;;;;;4996418;28;20054;-66
2022/02/22 06:20:47;;;;;;;6.05;2.58;;;-1.30;99.90;;;;;;4994920;28;20425;-70
2022/02/22 06:23:14;;;;;;;7.32;2.25;;;-1.40;99.90;;;;;;4993228;28;20054;-67
2022/02/22 06:25:41;;;;;;;8.77;3.88;;;-1.40;99.90;;;;;;4994942;28;20038;-65
2022/02/22 06:28:08;;;;;;;7.03;2.70;;;-1.40;99.90;;;;;;4995450;28;20089;-69
2022/02/22 06:30:36;;;;;;;4.93;2.13;;;-1.40;99.90;;;;;;4994373;28;20042;-68
2022/02/22 06:33:03;;;;;;;5.03;3.20;;;-1.40;99.90;;;;;;4996818;28;20057;-66
2022/02/22 06:35:30;;;;;;;4.80;2.70;;;-1.40;99.90;;;;;;4993244;28;20216;-69
2022/02/22 06:37:58;;;;;;;4.43;1.45;;;-1.40;99.90;;;;;;4997372;28;20962;-64
2022/02/22 06:40:27;;;;;;;9.00;3.00;;;-1.40;99.90;;;;;;4995186;28;20053;-66
2022/02/22 06:42:54;;;;;;;5.15;1.95;;;-1.40;99.90;;;;;;4995936;28;20161;-68
2022/02/22 06:45:21;;;;;;;9.18;2.03;;;-1.40;99.90;;;;;;4992908;28;20108;-69
2022/02/22 06:47:48;;;;;;;8.68;2.53;;;-1.50;99.90;;;;;;4996236;28;20151;-65
2022/02/22 06:50:16;;;;;;;5.97;2.13;;;-1.50;99.90;;;;;;4994520;28;20085;-65
2022/02/22 06:52:43;;;;;;;3.47;1.92;;;-1.50;99.90;;;;;;4998200;28;20165;-65
2022/02/22 06:55:11;;;;;;;4.68;1.70;;;-1.50;99.90;;;;;;4992411;28;20054;-70
2022/02/22 06:57:39;;;;;;;4.15;2.85;;;-1.50;99.90;;;;;;4994644;28;20064;-68
2022/02/22 07:00:09;;;;;;;2.90;1.95;;;-1.50;99.90;;;;;;4994929;28;20116;-69
2022/02/22 07:02:38;;;;;;;6.50;3.08;;;-1.50;99.90;;;;;;4996327;28;20665;-65
2022/02/22 07:05:06;;;;;;;5.00;2.22;;;-1.50;99.90;;;;;;4994156;28;20106;-65
2022/02/22 07:07:34;;;;;;;3.00;1.85;;;-1.50;99.90;;;;;;4995667;28;20077;-68
2022/02/22 07:10:01;;;;;;;6.28;2.63;;;-1.50;99.90;;;;;;4994164;28;20141;-68
2022/02/22 07:12:28;;;;;;;8.05;4.85;;;-1.50;99.90;;;;;;4993276;28;20081;-70
2022/02/22 07:14:55;;;;;;;7.43;1.85;;;-1.50;99.90;;;;;;4995400;28;20152;-66
2022/02/22 07:17:22;;;;;;;4.20;1.80;;;-1.60;99.90;;;;;;4992996;28;21818;-66
2022/02/22 07:19:50;;;;;;;6.72;1.75;;;-1.70;99.90;;;;;;4995227;28;20080;-66
2022/02/22 07:22:18;;;;;;;3.55;1.20;;;-1.70;99.90;;;;;;4995471;28;20061;-68
2022/02/22 07:24:45;;;;;;;8.32;2.78;;;-1.70;99.90;;;;;;4995812;28;20123;-67
2022/02/22 07:27:12;;;;;;;4.32;2.08;;;-1.70;99.90;;;;;;4993051;28;20053;-69
2022/02/22 07:29:39;;;;;;;5.20;2.70;;;-1.70;99.90;;;;;;4995494;28;20085;-70
2022/02/22 07:32:06;;;;;;;2.92;2.20;;;-1.70;99.90;;;;;;4995276;28;20045;-69
2022/02/22 07:34:33;;;;;;;2.15;1.70;;;-1.70;99.90;;;;;;4995993;28;20046;-66
2022/02/22 07:37:01;;;;;;;5.80;2.17;;;-1.70;99.90;;;;;;4995298;28;20061;-67
2022/02/22 07:39:27;;;;;;;3.08;1.70;;;-1.60;99.90;;;;;;4992409;28;20136;-66
2022/02/22 07:41:54;;;;;;;3.38;1.42;;;-1.60;99.90;;;;;;4995059;28;20077;-67
2022/02/22 07:44:21;;;;;;;2.97;1.55;;;-1.60;99.90;;;;;;4996189;28;20135;-70
2022/02/22 07:46:48;;;;;;;7.55;1.70;;;-1.70;99.90;;;;;;4994430;28;20045;-67
2022/02/22 07:49:15;;;;;;;5.75;1.58;;;-1.70;99.90;;;;;;5009468;28;20050;-67
2022/02/22 07:51:43;;;;;;;4.90;1.58;;;-1.70;99.90;;;;;;4994207;28;20068;-73
2022/02/22 07:54:10;;;;;;;5.13;2.15;;;-1.70;99.90;;;;;;4996487;28;20049;-70
2022/02/22 07:56:37;;;;;;;7.03;2.10;;;-1.70;99.90;;;;;;4994183;28;20050;-69
2022/02/22 07:59:04;;;;;;;3.65;1.95;;;-1.70;99.90;;;;;;5024252;28;20127;-66
2022/02/22 08:01:31;;;;;;;6.22;1.42;;;-1.70;99.90;;;;;;4992638;28;20716;-68
2022/02/22 08:03:58;;;;;;;4.65;1.55;;;-1.80;99.90;;;;;;4996723;28;20400;-67
2022/02/22 08:06:25;;;;;;;3.42;1.60;;;-1.70;99.90;;;;;;4993194;28;20115;-68
2022/02/22 08:08:52;;;;;;;8.77;2.25;;;-1.80;99.90;;;;;;4996057;28;20108;-69
2022/02/22 08:11:20;;;;;;;3.78;3.05;;;-1.80;99.90;;;;;;4992183;28;20054;-67
2022/02/22 08:13:49;;;;;;;3.30;1.73;;;-1.70;99.90;;;;;;4996359;28;20520;-63
2022/02/22 08:16:16;;;;;;;6.30;2.35;;;-1.60;99.90;;;;;;4994850;28;21399;-63
2022/02/22 08:18:44;;;;;;;5.65;1.77;;;-1.70;99.90;;;;;;4995488;28;20060;-65
2022/02/22 08:21:11;;;;;;;3.55;1.83;;;-1.70;99.90;;;;;;4992899;28;20175;-66
2022/02/22 08:23:38;;;;;;;3.42;1.90;;;-1.80;99.90;;;;;;4994611;28;20049;-69
2022/02/22 08:26:06;;;;;;;3.30;2.28;;;-1.70;99.90;;;;;;4994723;28;20702;-65
2022/02/22 08:28:33;;;;;;;8.95;1.92;;;-1.70;99.90;;;;;;4995217;28;20156;-64
2022/02/22 08:31:01;;;;;;;4.75;2.00;;;-1.70;99.90;;;;;;4994755;28;20057;-65
2022/02/22 08:33:28;;;;;;;4.68;2.08;;;-1.70;99.90;;;;;;4992083;28;20077;-63
2022/02/22 08:35:56;;;;;;;3.63;2.08;;;-1.70;99.90;;;;;;4996353;28;20119;-63
2022/02/22 08:38:24;;;;;;;4.65;3.17;;;-1.70;99.90;;;;;;4994067;28;20100;-64
2022/02/22 08:40:51;;;;;;;2.42;1.70;;;-1.70;99.90;;;;;;4995496;28;20405;-63
2022/02/22 08:43:18;;;;;;;6.68;2.97;;;-1.70;99.90;;;;;;4993239;28;20148;-64
2022/02/22 08:45:46;;;;;;;8.13;2.83;;;-1.70;99.90;;;;;;4994403;28;20459;-67
2022/02/22 08:48:15;;;;;;;2.75;1.50;;;-1.70;99.90;;;;;;5015484;28;20057;-65
2022/02/22 08:50:43;;;;;;;2.63;1.95;;;-1.70;99.90;;;;;;4974776;28;20046;-67
2022/02/22 08:53:12;;;;;;;6.00;2.53;;;-1.70;99.90;;;;;;4974321;28;20504;-68
2022/02/22 08:55:40;;;;;;;2.50;1.73;;;-1.80;99.90;;;;;;4994262;28;20060;-63
2022/02/22 08:58:07;;;;;;;7.40;2.10;;;-1.80;99.90;;;;;;4995766;28;20362;-65
2022/02/22 09:00:36;;;;;;;2.45;1.98;;;-1.80;99.90;;;;;;4991624;28;20137;-69
2022/02/22 09:03:03;;;;;;;3.70;2.00;;;-1.80;99.90;;;;;;4996242;28;20060;-64
2022/02/22 09:05:33;;;;;;;3.47;1.95;;;-1.80;99.90;;;;;;4989179;28;20064;-62
2022/02/22 09:08:05;;;;;;;2.72;1.38;;;-1.80;99.90;;;;;;4975237;28;20056;-66
2022/02/22 09:10:32;;;;;;;2.78;1.52;;;-1.80;99.90;;;;;;4985887;28;20141;-65
2022/02/22 09:13:00;;;;;;;4.10;2.30;;;-1.80;99.90;;;;;;4994984;28;20579;-65
2022/02/22 09:15:31;;;;;;;6.25;2.38;;;-1.80;99.90;;;;;;4991665;28;20054;-62
2022/02/22 09:17:59;;;;;;;5.55;2.00;;;-1.80;99.90;;;;;;4994460;28;21504;-63
2022/02/22 09:20:27;;;;;;;2.28;1.60;;;-1.80;99.90;;;;;;4993736;28;20120;-64
2022/02/22 09:22:54;;;;;;;2.00;1.70;;;-1.80;99.90;;;;;;4994391;28;20046;-69
2022/02/22 09:25:21;;;;;;;3.78;1.60;;;-1.80;99.90;;;;;;4992979;28;20164;-67
2022/02/22 09:27:49;;;;;;;1.83;1.33;;;-1.80;99.90;;;;;;4994238;28;20054;-66
2022/02/22 09:30:18;;;;;;;1.50;1.30;;;-1.80;99.90;;;;;;4994348;28;20144;-65
2022/02/22 09:32:49;;;;;;;5.97;1.83;;;-1.80;99.90;;;;;;4994032;28;20153;-66
2022/02/22 09:35:22;;;;;;;1.25;1.15;;;-1.80;99.90;;;;;;4991761;28;20125;-66
2022/02/22 09:37:49;;;;;;;3.28;1.27;;;-1.70;99.90;;;;;;4993810;28;20064;-62
2022/02/22 09:40:16;;;;;;;2.25;1.33;;;-1.70;99.90;;;;;;4994257;28;20061;-63
2022/02/22 09:42:44;;;;;;;4.03;1.48;;;-1.70;99.90;;;;;;4997382;28;20054;-65
2022/02/22 09:45:14;;;;;;;4.07;2.05;;;-1.70;99.90;;;;;;4996776;28;20050;-66
2022/02/22 09:47:43;;;;;;;2.95;1.30;;;-1.70;99.90;;;;;;4998657;28;20049;-63
2022/02/22 09:50:14;;;;;;;4.78;1.67;;;-1.60;99.90;;;;;;4988036;28;20713;-64
2022/02/22 09:52:41;;;;;;;4.30;1.48;;;-1.60;99.90;;;;;;4980229;28;20050;-64
2022/02/22 09:55:09;;;;;;;1.55;1.08;;;-1.60;99.90;;;;;;4977079;28;20053;-67
2022/02/22 09:57:37;;;;;;;4.70;1.63;;;-1.50;99.90;;;;;;4977509;28;20042;-66
2022/02/22 10:00:18;;;;;;;3.38;2.53;;;-1.50;99.90;;;;;;4985561;28;20080;-66
2022/02/22 10:02:45;;;;;;;3.83;2.00;;;-1.50;99.90;;;;;;4985343;28;20142;-64
2022/02/22 10:05:20;;;;;;;1.50;1.10;;;-1.50;99.90;;;;;;4992965;28;20049;-64
2022/02/22 10:07:51;;;;;;;4.70;1.92;;;-1.60;99.90;;;;;;4997768;28;20053;-67
2022/02/22 10:10:20;;;;;;;4.22;1.73;;;-1.60;99.90;;;;;;4997062;28;20081;-62
2022/02/22 10:12:54;;;;;;;5.82;3.17;;;-1.60;99.90;;;;;;4997633;28;20120;-64
2022/02/22 10:15:21;;;;;;;2.22;1.55;;;-1.60;99.90;;;;;;4995688;28;20053;-64
2022/02/22 10:17:50;;;;;;;4.93;1.45;;;-1.60;99.90;;;;;;4996901;28;20582;-62
2022/02/22 10:20:18;;;;;;;2.80;1.33;;;-1.60;99.90;;;;;;4997764;28;20049;-67
2022/02/22 10:22:46;;;;;;;1.65;1.13;;;-1.60;99.90;;;;;;4996859;28;20050;-67
2022/02/22 10:25:14;;;;;;;3.33;1.40;;;-1.60;99.90;;;;;;4995840;28;20120;-63
2022/02/22 10:27:45;;;;;;;7.88;1.02;;;-1.60;99.90;;;;;;4997500;28;20136;-65
2022/02/22 10:30:43;;;;;;;2.17;1.55;;;-1.50;99.90;;;;;;4998012;28;20046;-65
2022/02/22 10:33:17;;;;;;;3.40;1.60;;;-1.60;99.90;;;;;;4995273;28;20062;-66
2022/02/22 10:35:51;;;;;;;2.28;1.20;;;-1.60;99.90;;;;;;4997812;28;20049;-65
2022/02/22 10:38:28;;;;;;;6.50;1.20;;;-1.60;99.90;;;;;;4996695;28;20045;-66
2022/02/22 10:40:57;;;;;;;3.72;1.30;;;-1.60;99.90;;;;;;4996585;28;20046;-65
2022/02/22 10:43:31;;;;;;;4.60;1.98;;;-1.60;99.90;;;;;;4995502;28;20042;-69
2022/02/22 10:46:04;;;;;;;1.73;0.95;;;-1.60;99.90;;;;;;4996153;28;20897;-63
2022/02/22 10:48:34;;;;;;;2.20;1.25;;;-1.50;99.90;;;;;;4997228;28;20076;-64
2022/02/22 10:51:04;;;;;;;;;;;-1.50;99.90;;;;;;4996629;28;21634;-63
2022/02/22 10:53:45;;;;;;;3.00;1.13;;;-1.50;99.90;;;;;;4994490;28;19933;-66
2022/02/22 10:56:15;;;;;;;6.75;1.10;;;-1.40;99.90;;;;;;4997498;28;20650;-67
2022/02/22 10:58:46;;;;;;;2.40;1.25;;;-1.40;99.90;;;;;;4996341;28;20129;-66
2022/02/22 11:01:19;;;;;;;3.78;1.80;;;-1.50;99.90;;;;;;4995512;28;20050;-66
2022/02/22 11:03:47;;;;;;;5.35;1.42;;;-1.50;99.90;;;;;;4996034;28;20954;-64
2022/02/22 11:06:14;;;;;;;5.32;1.35;;;-1.50;99.90;;;;;;4996586;28;20042;-65
2022/02/22 11:08:47;;;;;;;1.48;1.20;;;-1.50;99.90;;;;;;4996313;28;20134;-64
2022/02/22 11:11:50;;;;;;;2.70;1.27;;;-1.50;99.90;;;;;;4994806;28;20069;-66
2022/02/22 11:14:31;;;;;;;3.60;1.20;;;-1.40;99.90;;;;;;3862635;28;10001978;-68
2022/02/22 11:17:02;;;;;;;1.95;1.23;;;-1.50;99.90;;;;;;2410341;28;10002106;-67
2022/02/22 11:19:38;;;;;;;2.50;1.10;;;-1.50;99.90;;;;;;4995491;28;20620;-66
2022/02/22 11:22:23;;;;;;;4.88;1.30;;;-1.40;99.90;;;;;;4995617;28;20128;-72
2022/02/22 11:25:01;;;;;;;3.28;1.48;;;-1.40;99.90;;;;;;4990773;28;20053;-68
2022/02/22 11:27:42;;;;;;;3.42;2.13;;;-1.40;99.90;;;;;;4994167;28;20064;-67
2022/02/22 11:30:15;;;;;;;18.83;3.58;;;-1.30;99.90;;;;;;4995994;28;20042;-65
2022/02/22 11:33:08;;;;;;;2.70;2.20;;;-1.40;99.90;;;;;;4996082;28;20280;-68
2022/02/22 11:35:57;;;;;;;5.22;1.30;;;-1.30;99.90;;;;;;4994451;28;20056;-68
2022/02/22 11:38:42;;;;;;;3.53;1.55;;;-1.30;99.90;;;;;;4995286;28;20049;-67
2022/02/22 11:41:41;;;;;;;1.77;1.58;;;-1.30;99.90;;;;;;4993322;28;20054;-67
2022/02/22 11:44:23;;;;;;;3.30;1.08;;;-1.30;99.90;;;;;;4993709;28;20431;-69
2022/02/22 11:46:56;;;;;;;3.08;1.20;;;-1.30;99.90;;;;;;4994024;28;20077;-67
2022/02/22 11:49:32;;;;;;;1.60;1.02;;;-1.30;99.90;;;;;;3052119;28;10003216;-66
2022/02/22 11:52:12;;;;;;;1.73;1.63;;;-1.20;99.90;;;;;;3617402;28;10002251;-67
2022/02/22 11:54:46;;;;;;;4.80;1.20;;;-1.20;99.90;;;;;;4994919;28;20050;-65
2022/02/22 11:57:16;;;;;;;6.72;1.45;;;-1.20;99.90;;;;;;4975303;28;20141;-66
2022/02/22 11:59:52;;;;;;;2.60;1.30;;;-1.30;99.90;;;;;;4975628;28;20365;-66
2022/02/22 12:02:30;;;;;;;5.70;2.20;;;-1.30;99.90;;;;;;4973377;28;20065;-70
2022/02/22 12:05:28;;;;;;;5.15;2.13;;;-1.20;99.90;;;;;;4975075;28;20144;-66
2022/02/22 12:07:58;;;;;;;6.32;3.40;;;-1.20;99.90;;;;;;4993165;28;20054;-68
2022/02/22 12:10:26;;;;;;;6.35;2.63;;;-1.20;99.90;;;;;;4993716;28;20077;-68
2022/02/22 12:13:08;;;;;;;5.13;2.33;;;-1.20;99.90;;;;;;4993415;28;20146;-71
2022/02/22 12:15:35;;;;;;;4.20;1.58;;;-1.20;99.90;;;;;;4993733;28;20108;-69
2022/02/22 12:18:16;;;;;;;2.10;1.40;;;-1.20;99.90;;;;;;3695080;28;10024253;-64
2022/02/22 12:20:47;;;;;;;2.13;1.08;;;-1.20;99.90;;;;;;2400850;28;10002084;-65
2022/02/22 12:23:25;;;;;;;2.03;1.67;;;-1.30;99.90;;;;;;4987264;28;20500;-65
2022/02/22 12:26:04;;;;;;;7.15;1.90;;;-1.30;99.90;;;;;;4985592;28;20117;-65
2022/02/22 12:28:31;;;;;;;1.40;1.25;;;-1.30;99.90;;;;;;4989852;28;20141;-64
2022/02/22 12:30:59;;;;;;;3.13;1.63;;;-1.30;99.90;;;;;;4988427;28;20077;-66
2022/02/22 12:33:33;;;;;;;3.30;1.92;;;-1.20;99.90;;;;;;4993232;28;20042;-66
2022/02/22 12:36:15;;;;;;;1.92;1.00;;;-1.20;99.90;;;;;;4992771;28;20181;-68
2022/02/22 12:38:42;;;;;;;4.18;2.15;;;-1.20;99.90;;;;;;4995518;28;20112;-66
2022/02/22 12:41:15;;;;;;;2.83;1.65;;;-1.30;99.90;;;;;;4992756;28;20526;-66
2022/02/22 12:43:50;;;;;;;3.03;1.55;;;-1.30;99.90;;;;;;4995812;28;20042;-63
2022/02/22 12:46:20;;;;;;;6.32;1.15;;;-1.30;99.90;;;;;;4994841;28;20123;-65
2022/02/22 12:48:47;;;;;;;4.75;1.88;;;-1.30;99.90;;;;;;4994433;28;20075;-63
2022/02/22 12:51:22;;;;;;;3.75;1.52;;;-1.20;99.90;;;;;;4991377;28;20192;-62
2022/02/22 12:54:01;;;;;;;4.65;1.40;;;-1.30;99.90;;;;;;4993771;28;20069;-65
2022/02/22 12:56:32;;;;;;;3.28;1.25;;;-1.30;99.90;;;;;;4993901;28;20046;-65
2022/02/22 12:58:59;;;;;;;6.55;1.55;;;-1.10;99.90;;;;;;4994623;28;20487;-62